sensor_id;sensor_type;location;lat;lon;timestamp;P1;durP1;ratioP1;P2;durP2;ratioP2
2564;SDS011;1292;48.020;7.822;2022-11-10T06:46:49;6.27;;;5.67;;
2564;SDS011;1292;48.020;7.822;2022-11-10T06:49:16;7.67;;;4.73;;
2564;SDS011;1292;48.020;7.822;2022-11-10T06:51:43;4.60;;;4.00;;
2564;SDS011;1292;48.020;7.822;2022-11-10T06:54:10;6.23;;;4.00;;
2564;SDS011;1292;48.020;7.822;2022-11-10T06:56:37;2.93;;;2.60;;
2564;SDS011;1292;48.020;7.822;2022-11-10T06:59:03;4.27;;;3.00;;
2564;SDS011;1292;48.020;7.822;2022-11-10T07:01:30;3.83;;;3.17;;
2564;SDS011;1292;48.020;7.822;2022-11-10T07:03:58;5.87;;;3.37;;
2564;SDS011;1292;48.020;7.822;2022-11-10T07:06:25;4.10;;;2.93;;
2564;SDS011;1292;48.020;7.822;2022-11-10T07:08:52;5.93;;;3.47;;
2564;SDS011;1292;48.020;7.822;2022-11-10T07:11:19;5.57;;;3.37;;
2564;SDS011;1292;48.020;7.822;2022-11-10T07:13:46;3.63;;;3.20;;
2564;SDS011;1292;48.020;7.822;2022-11-10T07:16:12;5.43;;;3.60;;
2564;SDS011;1292;48.020;7.822;2022-11-10T07:18:40;7.40;;;3.40;;
2564;SDS011;1292;48.020;7.822;2022-11-10T07:21:08;4.33;;;3.37;;
2564;SDS011;1292;48.020;7.822;2022-11-10T07:23:35;4.20;;;3.50;;
2564;SDS011;1292;48.020;7.822;2022-11-10T07:26:02;5.83;;;3.40;;
2564;SDS011;1292;48.020;7.822;2022-11-10T07:28:29;5.90;;;4.17;;
2564;SDS011;1292;48.020;7.822;2022-11-10T07:30:55;5.30;;;4.20;;
2564;SDS011;1292;48.020;7.822;2022-11-10T07:33:22;4.43;;;4.00;;
2564;SDS011;1292;48.020;7.822;2022-11-10T07:35:50;4.70;;;3.87;;
2564;SDS011;1292;48.020;7.822;2022-11-10T07:38:20;7.40;;;3.20;;
2564;SDS011;1292;48.020;7.822;2022-11-10T07:40:49;4.67;;;4.20;;
2564;SDS011;1292;48.020;7.822;2022-11-10T07:43:17;7.10;;;3.90;;
2564;SDS011;1292;48.020;7.822;2022-11-10T07:45:44;6.37;;;5.13;;
2564;SDS011;1292;48.020;7.822;2022-11-10T07:48:11;8.23;;;5.80;;
2564;SDS011;1292;48.020;7.822;2022-11-10T07:50:38;5.00;;;4.50;;
2564;SDS011;1292;48.020;7.822;2022-11-10T07:53:06;5.67;;;4.40;;
2564;SDS011;1292;48.020;7.822;2022-11-10T07:55:36;5.80;;;4.60;;
2564;SDS011;1292;48.020;7.822;2022-11-10T07:58:04;9.10;;;5.33;;
2564;SDS011;1292;48.020;7.822;2022-11-10T08:00:31;7.73;;;5.60;;
2564;SDS011;1292;48.020;7.822;2022-11-10T08:03:02;5.37;;;4.87;;
2564;SDS011;1292;48.020;7.822;2022-11-10T08:05:30;6.07;;;5.47;;
2564;SDS011;1292;48.020;7.822;2022-11-10T08:07:57;5.97;;;5.40;;
2564;SDS011;1292;48.020;7.822;2022-11-10T08:10:25;5.77;;;5.00;;
2564;SDS011;1292;48.020;7.822;2022-11-10T08:12:54;6.33;;;5.47;;
2564;SDS011;1292;48.020;7.822;2022-11-10T08:15:22;5.17;;;4.57;;
2564;SDS011;1292;48.020;7.822;2022-11-10T08:17:49;6.90;;;4.97;;
2564;SDS011;1292;48.020;7.822;2022-11-10T08:20:16;5.73;;;5.23;;
2564;SDS011;1292;48.020;7.822;2022-11-10T08:22:43;9.13;;;4.70;;
2564;SDS011;1292;48.020;7.822;2022-11-10T08:25:10;5.33;;;4.83;;
2564;SDS011;1292;48.020;7.822;2022-11-10T08:27:37;6.43;;;5.33;;
2564;SDS011;1292;48.020;7.822;2022-11-10T08:30:06;8.00;;;6.10;;
2564;SDS011;1292;48.020;7.822;2022-11-10T08:32:34;5.30;;;4.43;;
2564;SDS011;1292;48.020;7.822;2022-11-10T08:35:00;5.60;;;3.80;;
2564;SDS011;1292;48.020;7.822;2022-11-10T08:37:27;4.63;;;4.20;;
2564;SDS011;1292;48.020;7.822;2022-11-10T08:39:54;8.67;;;4.20;;
2564;SDS011;1292;48.020;7.822;2022-11-10T08:42:21;3.93;;;3.63;;
2564;SDS011;1292;48.020;7.822;2022-11-10T08:44:48;4.37;;;3.30;;
2564;SDS011;1292;48.020;7.822;2022-11-10T08:47:16;3.30;;;3.00;;
2564;SDS011;1292;48.020;7.822;2022-11-10T08:49:43;5.47;;;4.47;;
2564;SDS011;1292;48.020;7.822;2022-11-10T08:52:10;5.03;;;4.33;;
2564;SDS011;1292;48.020;7.822;2022-11-10T08:54:38;4.07;;;3.67;;
2564;SDS011;1292;48.020;7.822;2022-11-10T08:57:05;5.33;;;4.00;;
2564;SDS011;1292;48.020;7.822;2022-11-10T08:59:32;3.83;;;3.23;;
2564;SDS011;1292;48.020;7.822;2022-11-10T09:01:58;3.90;;;3.50;;
2564;SDS011;1292;48.020;7.822;2022-11-10T09:04:27;4.80;;;3.60;;
2564;SDS011;1292;48.020;7.822;2022-11-10T09:06:53;4.90;;;3.53;;
2564;SDS011;1292;48.020;7.822;2022-11-10T09:09:22;3.47;;;3.17;;
2564;SDS011;1292;48.020;7.822;2022-11-10T09:11:49;7.80;;;3.87;;
2564;SDS011;1292;48.020;7.822;2022-11-10T09:14:16;12.07;;;5.30;;
2564;SDS011;1292;48.020;7.822;2022-11-10T09:16:43;6.20;;;4.00;;
2564;SDS011;1292;48.020;7.822;2022-11-10T09:19:10;5.60;;;3.87;;
2564;SDS011;1292;48.020;7.822;2022-11-10T09:21:39;3.60;;;3.30;;
2564;SDS011;1292;48.020;7.822;2022-11-10T09:24:06;4.67;;;3.40;;
2564;SDS011;1292;48.020;7.822;2022-11-10T09:26:33;5.53;;;3.33;;
2564;SDS011;1292;48.020;7.822;2022-11-10T09:29:00;6.80;;;3.67;;
2564;SDS011;1292;48.020;7.822;2022-11-10T09:31:27;4.37;;;2.70;;
2564;SDS011;1292;48.020;7.822;2022-11-10T09:33:54;5.43;;;3.47;;
2564;SDS011;1292;48.020;7.822;2022-11-10T09:36:23;4.37;;;3.30;;
2564;SDS011;1292;48.020;7.822;2022-11-10T09:38:51;3.43;;;3.10;;
2564;SDS011;1292;48.020;7.822;2022-11-10T09:41:19;4.67;;;3.67;;
2564;SDS011;1292;48.020;7.822;2022-11-10T09:43:47;2.73;;;2.50;;
2564;SDS011;1292;48.020;7.822;2022-11-10T09:46:26;4.00;;;3.60;;
2564;SDS011;1292;48.020;7.822;2022-11-10T09:48:58;4.00;;;3.20;;
2564;SDS011;1292;48.020;7.822;2022-11-10T09:51:29;4.77;;;3.10;;
2564;SDS011;1292;48.020;7.822;2022-11-10T09:54:01;7.57;;;3.17;;
2564;SDS011;1292;48.020;7.822;2022-11-10T09:56:31;5.50;;;2.90;;
2564;SDS011;1292;48.020;7.822;2022-11-10T09:58:59;2.90;;;2.40;;
2564;SDS011;1292;48.020;7.822;2022-11-10T10:01:30;3.77;;;2.87;;
2564;SDS011;1292;48.020;7.822;2022-11-10T10:04:02;3.67;;;2.83;;
2564;SDS011;1292;48.020;7.822;2022-11-10T10:06:41;3.77;;;3.00;;
2564;SDS011;1292;48.020;7.822;2022-11-10T10:09:21;4.40;;;2.77;;
2564;SDS011;1292;48.020;7.822;2022-11-10T10:11:59;2.47;;;2.20;;
2564;SDS011;1292;48.020;7.822;2022-11-10T10:14:50;5.57;;;3.20;;
2564;SDS011;1292;48.020;7.822;2022-11-10T10:17:30;3.60;;;3.00;;
2564;SDS011;1292;48.020;7.822;2022-11-10T10:20:04;6.20;;;3.40;;
2564;SDS011;1292;48.020;7.822;2022-11-10T10:22:43;3.83;;;3.00;;
2564;SDS011;1292;48.020;7.822;2022-11-10T10:25:21;5.40;;;2.70;;
2564;SDS011;1292;48.020;7.822;2022-11-10T10:27:50;4.97;;;2.80;;
2564;SDS011;1292;48.020;7.822;2022-11-10T10:30:25;5.03;;;3.47;;
2564;SDS011;1292;48.020;7.822;2022-11-10T10:35:23;6.20;;;2.93;;
2564;SDS011;1292;48.020;7.822;2022-11-10T10:37:51;2.50;;;2.30;;
2564;SDS011;1292;48.020;7.822;2022-11-10T10:40:22;3.93;;;2.70;;
2564;SDS011;1292;48.020;7.822;2022-11-10T10:42:50;3.13;;;2.07;;
2564;SDS011;1292;48.020;7.822;2022-11-10T10:45:18;3.63;;;2.10;;
2564;SDS011;1292;48.020;7.822;2022-11-10T10:47:48;1.60;;;1.50;;
2564;SDS011;1292;48.020;7.822;2022-11-10T10:50:27;2.50;;;2.07;;
2564;SDS011;1292;48.020;7.822;2022-11-10T10:53:06;3.83;;;2.77;;
2564;SDS011;1292;48.020;7.822;2022-11-10T10:55:38;2.73;;;2.17;;
2564;SDS011;1292;48.020;7.822;2022-11-10T10:58:22;3.20;;;2.10;;
2564;SDS011;1292;48.020;7.822;2022-11-10T11:00:51;8.43;;;2.03;;
2564;SDS011;1292;48.020;7.822;2022-11-10T11:03:25;5.30;;;2.60;;
2564;SDS011;1292;48.020;7.822;2022-11-10T11:06:02;2.70;;;1.53;;
2564;SDS011;1292;48.020;7.822;2022-11-10T11:08:30;3.53;;;2.40;;
2564;SDS011;1292;48.020;7.822;2022-11-10T11:11:06;2.97;;;2.17;;
2564;SDS011;1292;48.020;7.822;2022-11-10T11:13:35;5.23;;;2.27;;
2564;SDS011;1292;48.020;7.822;2022-11-10T11:16:03;3.13;;;1.53;;
2564;SDS011;1292;48.020;7.822;2022-11-10T11:18:33;6.70;;;1.80;;
2564;SDS011;1292;48.020;7.822;2022-11-10T11:21:06;4.40;;;1.47;;
2564;SDS011;1292;48.020;7.822;2022-11-10T11:23:43;5.43;;;1.20;;
2564;SDS011;1292;48.020;7.822;2022-11-10T11:26:33;3.20;;;1.50;;
2564;SDS011;1292;48.020;7.822;2022-11-10T11:29:09;2.07;;;1.83;;
2564;SDS011;1292;48.020;7.822;2022-11-10T11:31:57;4.10;;;1.57;;
2564;SDS011;1292;48.020;7.822;2022-11-10T11:34:37;3.87;;;1.50;;
2564;SDS011;1292;48.020;7.822;2022-11-10T11:37:12;4.13;;;1.63;;
2564;SDS011;1292;48.020;7.822;2022-11-10T11:39:47;2.40;;;1.40;;
2564;SDS011;1292;48.020;7.822;2022-11-10T11:42:27;4.10;;;1.40;;
2564;SDS011;1292;48.020;7.822;2022-11-10T11:45:06;2.80;;;1.60;;
2564;SDS011;1292;48.020;7.822;2022-11-10T11:47:46;6.33;;;1.70;;
2564;SDS011;1292;48.020;7.822;2022-11-10T11:50:26;3.60;;;2.03;;
2564;SDS011;1292;48.020;7.822;2022-11-10T11:52:58;4.33;;;2.00;;
2564;SDS011;1292;48.020;7.822;2022-11-10T11:55:35;4.47;;;1.90;;
2564;SDS011;1292;48.020;7.822;2022-11-10T11:58:23;1.27;;;1.17;;
2564;SDS011;1292;48.020;7.822;2022-11-10T12:01:00;2.90;;;1.63;;
2564;SDS011;1292;48.020;7.822;2022-11-10T12:03:36;3.43;;;2.13;;
2564;SDS011;1292;48.020;7.822;2022-11-10T12:09:08;3.77;;;2.17;;
2564;SDS011;1292;48.020;7.822;2022-11-10T12:11:48;2.97;;;1.30;;
2564;SDS011;1292;48.020;7.822;2022-11-10T12:14:30;3.63;;;1.73;;
2564;SDS011;1292;48.020;7.822;2022-11-10T12:17:07;0.87;;;0.87;;
2564;SDS011;1292;48.020;7.822;2022-11-10T12:19:42;3.43;;;1.77;;
2564;SDS011;1292;48.020;7.822;2022-11-10T12:22:18;3.97;;;1.60;;
2564;SDS011;1292;48.020;7.822;2022-11-10T12:25:01;4.20;;;2.00;;
2564;SDS011;1292;48.020;7.822;2022-11-10T12:27:34;3.53;;;1.40;;
2564;SDS011;1292;48.020;7.822;2022-11-10T12:30:08;3.47;;;1.80;;
2564;SDS011;1292;48.020;7.822;2022-11-10T12:32:38;3.27;;;2.33;;
2564;SDS011;1292;48.020;7.822;2022-11-10T12:35:11;1.90;;;1.07;;
2564;SDS011;1292;48.020;7.822;2022-11-10T12:37:43;3.90;;;1.27;;
2564;SDS011;1292;48.020;7.822;2022-11-10T12:40:16;4.10;;;1.37;;
2564;SDS011;1292;48.020;7.822;2022-11-10T12:42:46;2.60;;;1.23;;
2564;SDS011;1292;48.020;7.822;2022-11-10T12:45:22;5.70;;;1.63;;
2564;SDS011;1292;48.020;7.822;2022-11-10T12:47:51;1.33;;;1.23;;
2564;SDS011;1292;48.020;7.822;2022-11-10T12:50:23;3.60;;;1.53;;
2564;SDS011;1292;48.020;7.822;2022-11-10T12:52:57;2.50;;;1.50;;
2564;SDS011;1292;48.020;7.822;2022-11-10T12:55:29;2.20;;;1.23;;
2564;SDS011;1292;48.020;7.822;2022-11-10T12:58:00;6.20;;;3.00;;
2564;SDS011;1292;48.020;7.822;2022-11-10T13:00:31;7.27;;;2.33;;
2564;SDS011;1292;48.020;7.822;2022-11-10T13:03:04;6.73;;;2.20;;
2564;SDS011;1292;48.020;7.822;2022-11-10T13:05:40;6.10;;;1.53;;
2564;SDS011;1292;48.020;7.822;2022-11-10T13:08:22;3.80;;;1.53;;
2564;SDS011;1292;48.020;7.822;2022-11-10T13:10:59;3.90;;;1.47;;
2564;SDS011;1292;48.020;7.822;2022-11-10T13:13:29;5.13;;;1.30;;
2564;SDS011;1292;48.020;7.822;2022-11-10T13:16:08;2.03;;;1.40;;
2564;SDS011;1292;48.020;7.822;2022-11-10T13:24:29;2.40;;;1.23;;
2564;SDS011;1292;48.020;7.822;2022-11-10T13:26:57;2.60;;;1.73;;
2564;SDS011;1292;48.020;7.822;2022-11-10T13:29:28;4.13;;;1.80;;
2564;SDS011;1292;48.020;7.822;2022-11-10T13:32:09;1.77;;;1.30;;
2564;SDS011;1292;48.020;7.822;2022-11-10T13:34:49;4.57;;;2.00;;
2564;SDS011;1292;48.020;7.822;2022-11-10T13:40:27;4.23;;;1.83;;
2564;SDS011;1292;48.020;7.822;2022-11-10T13:46:00;2.70;;;1.60;;
2564;SDS011;1292;48.020;7.822;2022-11-10T13:48:34;6.30;;;2.00;;
2564;SDS011;1292;48.020;7.822;2022-11-10T13:51:24;9.00;;;2.33;;
2564;SDS011;1292;48.020;7.822;2022-11-10T13:54:04;8.73;;;2.10;;
2564;SDS011;1292;48.020;7.822;2022-11-10T13:56:47;2.10;;;1.70;;
2564;SDS011;1292;48.020;7.822;2022-11-10T13:59:29;10.90;;;2.47;;
2564;SDS011;1292;48.020;7.822;2022-11-10T14:04:59;4.17;;;2.03;;
2564;SDS011;1292;48.020;7.822;2022-11-10T14:07:28;3.97;;;1.80;;
2564;SDS011;1292;48.020;7.822;2022-11-10T14:09:59;3.67;;;1.77;;
2564;SDS011;1292;48.020;7.822;2022-11-10T14:12:32;6.23;;;1.80;;
2564;SDS011;1292;48.020;7.822;2022-11-10T14:15:03;3.90;;;2.10;;
2564;SDS011;1292;48.020;7.822;2022-11-10T14:17:39;6.03;;;2.27;;
2564;SDS011;1292;48.020;7.822;2022-11-10T14:20:19;3.07;;;1.37;;
2564;SDS011;1292;48.020;7.822;2022-11-10T14:22:48;2.73;;;1.60;;
2564;SDS011;1292;48.020;7.822;2022-11-10T14:25:18;4.83;;;2.00;;
2564;SDS011;1292;48.020;7.822;2022-11-10T14:27:51;3.60;;;2.57;;
2564;SDS011;1292;48.020;7.822;2022-11-10T14:30:30;8.77;;;2.03;;
2564;SDS011;1292;48.020;7.822;2022-11-10T14:32:58;12.53;;;2.43;;
2564;SDS011;1292;48.020;7.822;2022-11-10T14:35:29;2.10;;;1.90;;
2564;SDS011;1292;48.020;7.822;2022-11-10T14:37:58;3.30;;;1.90;;
2564;SDS011;1292;48.020;7.822;2022-11-10T14:40:25;2.70;;;1.73;;
2564;SDS011;1292;48.020;7.822;2022-11-10T14:42:53;3.73;;;1.73;;
2564;SDS011;1292;48.020;7.822;2022-11-10T14:45:21;4.87;;;1.67;;
2564;SDS011;1292;48.020;7.822;2022-11-10T14:47:49;2.80;;;1.63;;
2564;SDS011;1292;48.020;7.822;2022-11-10T14:50:19;2.50;;;1.93;;
2564;SDS011;1292;48.020;7.822;2022-11-10T14:52:49;6.43;;;1.57;;
2564;SDS011;1292;48.020;7.822;2022-11-10T14:55:20;4.60;;;1.97;;
2564;SDS011;1292;48.020;7.822;2022-11-10T14:57:49;1.70;;;1.37;;
2564;SDS011;1292;48.020;7.822;2022-11-10T15:00:21;6.63;;;1.80;;
2564;SDS011;1292;48.020;7.822;2022-11-10T15:02:50;3.77;;;1.83;;
2564;SDS011;1292;48.020;7.822;2022-11-10T15:05:19;3.00;;;2.00;;
2564;SDS011;1292;48.020;7.822;2022-11-10T15:07:46;3.93;;;2.10;;
2564;SDS011;1292;48.020;7.822;2022-11-10T15:10:17;2.90;;;2.07;;
2564;SDS011;1292;48.020;7.822;2022-11-10T15:12:56;3.77;;;1.90;;
2564;SDS011;1292;48.020;7.822;2022-11-10T15:15:27;2.90;;;1.57;;
2564;SDS011;1292;48.020;7.822;2022-11-10T15:17:54;2.50;;;1.87;;
2564;SDS011;1292;48.020;7.822;2022-11-10T15:20:30;3.97;;;1.80;;
2564;SDS011;1292;48.020;7.822;2022-11-10T15:23:02;2.70;;;2.27;;
2564;SDS011;1292;48.020;7.822;2022-11-10T15:25:32;9.50;;;2.70;;
2564;SDS011;1292;48.020;7.822;2022-11-10T15:28:01;5.13;;;2.50;;
2564;SDS011;1292;48.020;7.822;2022-11-10T15:30:47;2.60;;;2.33;;
2564;SDS011;1292;48.020;7.822;2022-11-10T15:33:23;5.20;;;3.37;;
2564;SDS011;1292;48.020;7.822;2022-11-10T15:35:51;2.73;;;2.53;;
2564;SDS011;1292;48.020;7.822;2022-11-10T15:38:24;4.90;;;2.90;;
2564;SDS011;1292;48.020;7.822;2022-11-10T15:41:03;3.73;;;3.00;;
2564;SDS011;1292;48.020;7.822;2022-11-10T15:43:40;2.10;;;1.90;;
2564;SDS011;1292;48.020;7.822;2022-11-10T15:46:09;3.90;;;2.73;;
2564;SDS011;1292;48.020;7.822;2022-11-10T15:48:41;3.13;;;2.20;;
2564;SDS011;1292;48.020;7.822;2022-11-10T15:51:10;7.13;;;2.37;;
2564;SDS011;1292;48.020;7.822;2022-11-10T15:53:40;3.50;;;2.00;;
2564;SDS011;1292;48.020;7.822;2022-11-10T15:56:10;3.90;;;3.33;;
2564;SDS011;1292;48.020;7.822;2022-11-10T15:58:38;5.27;;;3.87;;
2564;SDS011;1292;48.020;7.822;2022-11-10T16:01:07;3.13;;;2.37;;
2564;SDS011;1292;48.020;7.822;2022-11-10T16:03:36;11.30;;;3.50;;
2564;SDS011;1292;48.020;7.822;2022-11-10T16:06:02;3.93;;;2.53;;
2564;SDS011;1292;48.020;7.822;2022-11-10T16:08:29;4.60;;;2.10;;
2564;SDS011;1292;48.020;7.822;2022-11-10T16:10:59;7.73;;;2.50;;
2564;SDS011;1292;48.020;7.822;2022-11-10T16:13:27;3.50;;;1.80;;
2564;SDS011;1292;48.020;7.822;2022-11-10T16:15:56;9.10;;;2.27;;
2564;SDS011;1292;48.020;7.822;2022-11-10T16:18:25;3.90;;;2.40;;
2564;SDS011;1292;48.020;7.822;2022-11-10T16:20:53;3.47;;;1.87;;
2564;SDS011;1292;48.020;7.822;2022-11-10T16:23:20;3.90;;;2.33;;
2564;SDS011;1292;48.020;7.822;2022-11-10T16:25:47;2.63;;;1.77;;
2564;SDS011;1292;48.020;7.822;2022-11-10T16:28:18;3.13;;;2.23;;
2564;SDS011;1292;48.020;7.822;2022-11-10T16:30:47;5.13;;;2.00;;
2564;SDS011;1292;48.020;7.822;2022-11-10T16:33:15;5.00;;;2.03;;
2564;SDS011;1292;48.020;7.822;2022-11-10T16:35:43;9.30;;;2.23;;
2564;SDS011;1292;48.020;7.822;2022-11-10T16:38:15;5.63;;;2.70;;
2564;SDS011;1292;48.020;7.822;2022-11-10T16:40:44;8.57;;;2.80;;
2564;SDS011;1292;48.020;7.822;2022-11-10T16:43:14;2.80;;;1.80;;
2564;SDS011;1292;48.020;7.822;2022-11-10T16:45:43;2.87;;;2.33;;
2564;SDS011;1292;48.020;7.822;2022-11-10T16:48:12;5.50;;;2.60;;
2564;SDS011;1292;48.020;7.822;2022-11-10T16:50:42;2.40;;;2.00;;
2564;SDS011;1292;48.020;7.822;2022-11-10T16:53:12;7.37;;;3.20;;
2564;SDS011;1292;48.020;7.822;2022-11-10T16:55:41;2.43;;;2.00;;
2564;SDS011;1292;48.020;7.822;2022-11-10T16:58:08;4.03;;;2.30;;
2564;SDS011;1292;48.020;7.822;2022-11-10T17:00:35;4.50;;;2.20;;
2564;SDS011;1292;48.020;7.822;2022-11-10T17:03:06;4.07;;;2.20;;
2564;SDS011;1292;48.020;7.822;2022-11-10T17:05:39;5.73;;;2.60;;
2564;SDS011;1292;48.020;7.822;2022-11-10T17:08:07;3.80;;;2.30;;
2564;SDS011;1292;48.020;7.822;2022-11-10T17:10:41;5.50;;;2.43;;
2564;SDS011;1292;48.020;7.822;2022-11-10T17:13:08;3.63;;;3.10;;
2564;SDS011;1292;48.020;7.822;2022-11-10T17:15:35;2.67;;;2.40;;
2564;SDS011;1292;48.020;7.822;2022-11-10T17:18:03;6.07;;;4.07;;
2564;SDS011;1292;48.020;7.822;2022-11-10T17:20:33;4.53;;;3.60;;
2564;SDS011;1292;48.020;7.822;2022-11-10T17:23:01;5.60;;;3.53;;
2564;SDS011;1292;48.020;7.822;2022-11-10T17:25:30;3.60;;;2.97;;
2564;SDS011;1292;48.020;7.822;2022-11-10T17:28:00;4.37;;;3.20;;
2564;SDS011;1292;48.020;7.822;2022-11-10T17:30:27;4.13;;;3.73;;
2564;SDS011;1292;48.020;7.822;2022-11-10T17:32:54;7.23;;;3.03;;
2564;SDS011;1292;48.020;7.822;2022-11-10T17:35:23;12.00;;;3.80;;
2564;SDS011;1292;48.020;7.822;2022-11-10T17:37:51;4.20;;;2.70;;
2564;SDS011;1292;48.020;7.822;2022-11-10T17:40:20;4.63;;;2.93;;
2564;SDS011;1292;48.020;7.822;2022-11-10T17:42:49;3.03;;;2.80;;
2564;SDS011;1292;48.020;7.822;2022-11-10T17:45:17;2.60;;;2.40;;
2564;SDS011;1292;48.020;7.822;2022-11-10T17:47:46;7.30;;;3.00;;
2564;SDS011;1292;48.020;7.822;2022-11-10T17:50:14;3.73;;;3.00;;
2564;SDS011;1292;48.020;7.822;2022-11-10T17:52:43;3.77;;;3.43;;
2564;SDS011;1292;48.020;7.822;2022-11-10T17:55:14;3.47;;;3.17;;
2564;SDS011;1292;48.020;7.822;2022-11-10T17:57:43;5.57;;;5.07;;
2564;SDS011;1292;48.020;7.822;2022-11-10T18:00:10;5.30;;;4.07;;
2564;SDS011;1292;48.020;7.822;2022-11-10T18:02:38;4.67;;;3.87;;
2564;SDS011;1292;48.020;7.822;2022-11-10T18:05:05;7.70;;;5.50;;
2564;SDS011;1292;48.020;7.822;2022-11-10T18:07:34;10.80;;;8.40;;
2564;SDS011;1292;48.020;7.822;2022-11-10T18:10:03;11.60;;;8.20;;
2564;SDS011;1292;48.020;7.822;2022-11-10T18:12:30;10.20;;;7.77;;
2564;SDS011;1292;48.020;7.822;2022-11-10T18:14:57;10.40;;;7.70;;
2564;SDS011;1292;48.020;7.822;2022-11-10T18:17:24;5.60;;;4.53;;
2564;SDS011;1292;48.020;7.822;2022-11-10T18:19:51;6.97;;;5.17;;
2564;SDS011;1292;48.020;7.822;2022-11-10T18:22:18;7.37;;;5.13;;
2564;SDS011;1292;48.020;7.822;2022-11-10T18:24:44;5.30;;;4.40;;
2564;SDS011;1292;48.020;7.822;2022-11-10T18:27:13;7.63;;;4.67;;
2564;SDS011;1292;48.020;7.822;2022-11-10T18:29:39;5.20;;;4.13;;
2564;SDS011;1292;48.020;7.822;2022-11-10T18:32:06;5.10;;;4.23;;
2564;SDS011;1292;48.020;7.822;2022-11-10T18:34:33;4.47;;;3.70;;
2564;SDS011;1292;48.020;7.822;2022-11-10T18:37:00;6.27;;;5.67;;
2564;SDS011;1292;48.020;7.822;2022-11-10T18:39:27;6.37;;;4.83;;
2564;SDS011;1292;48.020;7.822;2022-11-10T18:41:54;7.03;;;3.90;;
2564;SDS011;1292;48.020;7.822;2022-11-10T18:44:22;4.53;;;3.70;;
2564;SDS011;1292;48.020;7.822;2022-11-10T18:46:50;4.27;;;3.57;;
2564;SDS011;1292;48.020;7.822;2022-11-10T18:49:17;8.33;;;4.10;;
2564;SDS011;1292;48.020;7.822;2022-11-10T18:51:44;5.97;;;3.40;;
2564;SDS011;1292;48.020;7.822;2022-11-10T18:54:11;3.50;;;3.20;;
2564;SDS011;1292;48.020;7.822;2022-11-10T18:56:38;4.20;;;3.07;;
2564;SDS011;1292;48.020;7.822;2022-11-10T18:59:05;9.13;;;3.77;;
2564;SDS011;1292;48.020;7.822;2022-11-10T19:01:33;6.07;;;4.80;;
2564;SDS011;1292;48.020;7.822;2022-11-10T19:04:00;8.73;;;4.83;;
2564;SDS011;1292;48.020;7.822;2022-11-10T19:06:27;14.93;;;7.20;;
2564;SDS011;1292;48.020;7.822;2022-11-10T19:08:54;9.27;;;7.97;;
2564;SDS011;1292;48.020;7.822;2022-11-10T19:11:21;7.50;;;6.70;;
2564;SDS011;1292;48.020;7.822;2022-11-10T19:13:48;10.30;;;6.87;;
2564;SDS011;1292;48.020;7.822;2022-11-10T19:16:16;6.80;;;6.10;;
2564;SDS011;1292;48.020;7.822;2022-11-10T19:18:45;8.80;;;6.43;;
2564;SDS011;1292;48.020;7.822;2022-11-10T19:21:12;8.27;;;7.47;;
2564;SDS011;1292;48.020;7.822;2022-11-10T19:23:40;7.33;;;6.13;;
2564;SDS011;1292;48.020;7.822;2022-11-10T19:26:09;6.90;;;6.20;;
2564;SDS011;1292;48.020;7.822;2022-11-10T19:28:37;7.37;;;5.60;;
2564;SDS011;1292;48.020;7.822;2022-11-10T19:31:06;7.60;;;5.53;;
2564;SDS011;1292;48.020;7.822;2022-11-10T19:33:36;6.37;;;5.60;;
2564;SDS011;1292;48.020;7.822;2022-11-10T19:36:06;9.60;;;5.60;;
2564;SDS011;1292;48.020;7.822;2022-11-10T19:38:35;6.60;;;4.97;;
2564;SDS011;1292;48.020;7.822;2022-11-10T19:41:03;5.27;;;4.70;;
2564;SDS011;1292;48.020;7.822;2022-11-10T19:43:32;8.60;;;5.00;;
2564;SDS011;1292;48.020;7.822;2022-11-10T19:46:02;6.40;;;5.00;;
2564;SDS011;1292;48.020;7.822;2022-11-10T19:48:30;6.63;;;5.00;;
2564;SDS011;1292;48.020;7.822;2022-11-10T19:50:58;9.23;;;5.10;;
2564;SDS011;1292;48.020;7.822;2022-11-10T19:53:27;9.60;;;5.30;;
2564;SDS011;1292;48.020;7.822;2022-11-10T19:55:58;6.40;;;4.40;;
2564;SDS011;1292;48.020;7.822;2022-11-10T19:58:25;6.63;;;4.93;;
2564;SDS011;1292;48.020;7.822;2022-11-10T20:00:52;7.17;;;5.43;;
2564;SDS011;1292;48.020;7.822;2022-11-10T20:03:20;8.33;;;7.27;;
2564;SDS011;1292;48.020;7.822;2022-11-10T20:05:47;13.93;;;12.47;;
2564;SDS011;1292;48.020;7.822;2022-11-10T20:08:23;14.27;;;11.37;;
2564;SDS011;1292;48.020;7.822;2022-11-10T20:10:51;19.40;;;10.33;;
2564;SDS011;1292;48.020;7.822;2022-11-10T20:13:18;15.77;;;10.47;;
2564;SDS011;1292;48.020;7.822;2022-11-10T20:15:45;8.00;;;7.30;;
2564;SDS011;1292;48.020;7.822;2022-11-10T20:18:11;12.03;;;6.97;;
2564;SDS011;1292;48.020;7.822;2022-11-10T20:20:38;7.10;;;5.70;;
2564;SDS011;1292;48.020;7.822;2022-11-10T20:23:06;5.60;;;5.10;;
2564;SDS011;1292;48.020;7.822;2022-11-10T20:25:35;10.03;;;6.00;;
2564;SDS011;1292;48.020;7.822;2022-11-10T20:28:04;8.03;;;7.13;;
2564;SDS011;1292;48.020;7.822;2022-11-10T20:30:31;10.37;;;6.63;;
2564;SDS011;1292;48.020;7.822;2022-11-10T20:32:59;8.93;;;7.27;;
2564;SDS011;1292;48.020;7.822;2022-11-10T20:35:25;8.83;;;7.30;;
2564;SDS011;1292;48.020;7.822;2022-11-10T20:37:52;9.27;;;8.13;;
2564;SDS011;1292;48.020;7.822;2022-11-10T20:40:19;11.33;;;9.37;;
2564;SDS011;1292;48.020;7.822;2022-11-10T20:42:46;7.33;;;6.53;;
2564;SDS011;1292;48.020;7.822;2022-11-10T20:45:15;7.93;;;5.80;;
2564;SDS011;1292;48.020;7.822;2022-11-10T20:47:42;9.13;;;5.47;;
2564;SDS011;1292;48.020;7.822;2022-11-10T20:50:09;6.97;;;5.90;;
2564;SDS011;1292;48.020;7.822;2022-11-10T20:52:37;8.57;;;5.00;;
2564;SDS011;1292;48.020;7.822;2022-11-10T20:55:04;6.50;;;5.67;;
2564;SDS011;1292;48.020;7.822;2022-11-10T20:57:32;9.67;;;6.40;;
2564;SDS011;1292;48.020;7.822;2022-11-10T20:59:59;9.17;;;7.33;;
2564;SDS011;1292;48.020;7.822;2022-11-10T21:02:27;12.33;;;8.40;;
2564;SDS011;1292;48.020;7.822;2022-11-10T21:04:54;7.77;;;6.60;;
2564;SDS011;1292;48.020;7.822;2022-11-10T21:07:20;7.87;;;7.07;;
2564;SDS011;1292;48.020;7.822;2022-11-10T21:09:47;7.60;;;6.10;;
2564;SDS011;1292;48.020;7.822;2022-11-10T21:12:14;8.87;;;6.40;;
2564;SDS011;1292;48.020;7.822;2022-11-10T21:14:58;7.07;;;6.03;;
2564;SDS011;1292;48.020;7.822;2022-11-10T21:17:27;8.80;;;7.90;;
2564;SDS011;1292;48.020;7.822;2022-11-10T21:19:54;8.10;;;7.30;;
2564;SDS011;1292;48.020;7.822;2022-11-10T21:22:21;11.73;;;7.60;;
2564;SDS011;1292;48.020;7.822;2022-11-10T21:24:48;7.30;;;6.60;;
2564;SDS011;1292;48.020;7.822;2022-11-10T21:27:15;10.43;;;7.30;;
2564;SDS011;1292;48.020;7.822;2022-11-10T21:29:42;11.43;;;7.57;;
2564;SDS011;1292;48.020;7.822;2022-11-10T21:32:08;6.83;;;6.20;;
2564;SDS011;1292;48.020;7.822;2022-11-10T21:34:37;7.77;;;7.07;;
2564;SDS011;1292;48.020;7.822;2022-11-10T21:37:04;8.80;;;6.50;;
2564;SDS011;1292;48.020;7.822;2022-11-10T21:39:30;8.30;;;6.80;;
2564;SDS011;1292;48.020;7.822;2022-11-10T21:41:57;9.27;;;6.40;;
2564;SDS011;1292;48.020;7.822;2022-11-10T21:44:24;6.87;;;6.17;;
2564;SDS011;1292;48.020;7.822;2022-11-10T21:46:51;9.27;;;7.63;;
2564;SDS011;1292;48.020;7.822;2022-11-10T21:49:18;8.63;;;6.47;;
2564;SDS011;1292;48.020;7.822;2022-11-10T21:51:46;7.20;;;6.33;;
2564;SDS011;1292;48.020;7.822;2022-11-10T21:54:13;8.87;;;6.73;;
2564;SDS011;1292;48.020;7.822;2022-11-10T21:56:40;8.40;;;6.70;;
2564;SDS011;1292;48.020;7.822;2022-11-10T21:59:06;11.97;;;7.07;;
